sensor_id;sensor_type;location;lat;lon;timestamp;pressure;altitude;pressure_sealevel;temperature;humidity
5455;BME280;2750;49.050;9.250;2022-08-21T00:01:06;98863.56;;;18.73;81.04
5455;BME280;2750;49.050;9.250;2022-08-21T00:06:11;98848.50;;;18.53;82.12
5455;BME280;2750;49.050;9.250;2022-08-21T00:11:13;98851.69;;;18.34;82.66
5455;BME280;2750;49.050;9.250;2022-08-21T00:16:16;98856.09;;;18.34;83.20
5455;BME280;2750;49.050;9.250;2022-08-21T00:21:17;98854.81;;;18.39;83.24
5455;BME280;2750;49.050;9.250;2022-08-21T00:26:19;98849.06;;;18.23;83.57
5455;BME280;2750;49.050;9.250;2022-08-21T00:31:21;98854.72;;;17.95;84.83
5455;BME280;2750;49.050;9.250;2022-08-21T00:36:23;98852.75;;;17.75;84.20
5455;BME280;2750;49.050;9.250;2022-08-21T00:41:25;98858.44;;;17.92;83.88
5455;BME280;2750;49.050;9.250;2022-08-21T00:46:28;98856.03;;;17.89;84.24
5455;BME280;2750;49.050;9.250;2022-08-21T00:51:35;98845.19;;;17.59;84.74
5455;BME280;2750;49.050;9.250;2022-08-21T00:56:37;98836.03;;;17.64;84.71
5455;BME280;2750;49.050;9.250;2022-08-21T01:01:40;98849.66;;;17.70;85.27
5455;BME280;2750;49.050;9.250;2022-08-21T01:06:42;98846.56;;;17.76;84.80
5455;BME280;2750;49.050;9.250;2022-08-21T01:11:43;98854.09;;;17.80;84.51
5455;BME280;2750;49.050;9.250;2022-08-21T01:16:49;98855.25;;;17.76;84.14
5455;BME280;2750;49.050;9.250;2022-08-21T01:21:53;98856.44;;;17.72;83.92
5455;BME280;2750;49.050;9.250;2022-08-21T01:26:55;98847.84;;;17.46;84.84
5455;BME280;2750;49.050;9.250;2022-08-21T01:31:56;98858.28;;;17.35;85.15
5455;BME280;2750;49.050;9.250;2022-08-21T01:36:59;98862.59;;;17.36;85.81
5455;BME280;2750;49.050;9.250;2022-08-21T01:42:01;98851.75;;;17.41;85.30
5455;BME280;2750;49.050;9.250;2022-08-21T01:47:07;98855.44;;;17.38;85.14
5455;BME280;2750;49.050;9.250;2022-08-21T01:52:10;98835.81;;;17.20;85.15
5455;BME280;2750;49.050;9.250;2022-08-21T01:57:12;98837.13;;;17.02;85.82
5455;BME280;2750;49.050;9.250;2022-08-21T02:02:15;98839.91;;;16.88;85.99
5455;BME280;2750;49.050;9.250;2022-08-21T02:07:18;98834.16;;;17.06;85.80
5455;BME280;2750;49.050;9.250;2022-08-21T02:12:19;98834.50;;;17.02;85.34
5455;BME280;2750;49.050;9.250;2022-08-21T02:17:21;98832.47;;;16.82;85.58
5455;BME280;2750;49.050;9.250;2022-08-21T02:22:24;98824.84;;;16.79;85.81
5455;BME280;2750;49.050;9.250;2022-08-21T02:27:25;98824.63;;;16.69;86.63
5455;BME280;2750;49.050;9.250;2022-08-21T02:32:27;98819.31;;;16.70;86.60
5455;BME280;2750;49.050;9.250;2022-08-21T02:37:29;98819.00;;;16.50;87.38
5455;BME280;2750;49.050;9.250;2022-08-21T02:42:31;98813.22;;;16.70;87.11
5455;BME280;2750;49.050;9.250;2022-08-21T02:47:33;98821.41;;;16.65;87.09
5455;BME280;2750;49.050;9.250;2022-08-21T02:52:35;98819.22;;;16.59;86.37
5455;BME280;2750;49.050;9.250;2022-08-21T02:57:37;98827.38;;;16.30;86.87
5455;BME280;2750;49.050;9.250;2022-08-21T03:02:38;98825.28;;;16.22;87.65
5455;BME280;2750;49.050;9.250;2022-08-21T03:07:42;98825.81;;;16.27;88.00
5455;BME280;2750;49.050;9.250;2022-08-21T03:12:44;98829.34;;;15.75;88.75
5455;BME280;2750;49.050;9.250;2022-08-21T03:17:46;98829.50;;;15.87;88.49
5455;BME280;2750;49.050;9.250;2022-08-21T03:22:49;98825.09;;;16.12;88.59
5455;BME280;2750;49.050;9.250;2022-08-21T03:27:51;98825.72;;;16.16;86.98
5455;BME280;2750;49.050;9.250;2022-08-21T03:32:53;98823.72;;;16.19;87.36
5455;BME280;2750;49.050;9.250;2022-08-21T03:37:56;98827.81;;;16.36;87.58
5455;BME280;2750;49.050;9.250;2022-08-21T03:42:57;98831.59;;;15.94;88.07
5455;BME280;2750;49.050;9.250;2022-08-21T03:48:01;98830.19;;;15.63;89.16
5455;BME280;2750;49.050;9.250;2022-08-21T03:53:05;98829.88;;;15.81;89.20
5455;BME280;2750;49.050;9.250;2022-08-21T03:58:06;98838.72;;;15.53;89.19
5455;BME280;2750;49.050;9.250;2022-08-21T04:03:08;98848.38;;;15.52;89.32
5455;BME280;2750;49.050;9.250;2022-08-21T04:08:11;98846.47;;;15.54;89.38
5455;BME280;2750;49.050;9.250;2022-08-21T04:13:13;98849.66;;;15.45;89.13
5455;BME280;2750;49.050;9.250;2022-08-21T04:18:15;98851.63;;;15.42;89.65
5455;BME280;2750;49.050;9.250;2022-08-21T04:23:19;98857.88;;;15.53;89.42
5455;BME280;2750;49.050;9.250;2022-08-21T04:28:22;98861.38;;;15.40;89.71
5455;BME280;2750;49.050;9.250;2022-08-21T04:33:24;98861.75;;;15.60;89.38
5455;BME280;2750;49.050;9.250;2022-08-21T04:38:27;98876.03;;;15.69;88.89
5455;BME280;2750;49.050;9.250;2022-08-21T04:43:28;98884.19;;;15.23;90.54
5455;BME280;2750;49.050;9.250;2022-08-21T04:48:30;98887.09;;;15.60;89.91
5455;BME280;2750;49.050;9.250;2022-08-21T04:53:37;98889.09;;;16.46;86.77
5455;BME280;2750;49.050;9.250;2022-08-21T04:58:40;98880.56;;;16.93;83.70
5455;BME280;2750;49.050;9.250;2022-08-21T05:03:43;98893.91;;;17.27;82.13
5455;BME280;2750;49.050;9.250;2022-08-21T05:08:48;98892.63;;;17.32;82.13
5455;BME280;2750;49.050;9.250;2022-08-21T05:13:52;98897.50;;;18.08;80.75
5455;BME280;2750;49.050;9.250;2022-08-21T05:18:53;98898.28;;;19.21;77.40
5455;BME280;2750;49.050;9.250;2022-08-21T05:23:56;98896.63;;;19.63;76.26
5455;BME280;2750;49.050;9.250;2022-08-21T05:28:57;98898.44;;;20.57;73.43
5455;BME280;2750;49.050;9.250;2022-08-21T05:33:59;98895.41;;;20.91;72.60
5455;BME280;2750;49.050;9.250;2022-08-21T05:39:02;98894.34;;;22.20;70.00
5455;BME280;2750;49.050;9.250;2022-08-21T05:44:04;98902.06;;;22.97;66.84
5455;BME280;2750;49.050;9.250;2022-08-21T05:49:05;98895.09;;;23.86;65.33
5455;BME280;2750;49.050;9.250;2022-08-21T05:54:08;98895.47;;;25.20;62.86
5455;BME280;2750;49.050;9.250;2022-08-21T05:59:11;98898.00;;;25.21;62.71
5455;BME280;2750;49.050;9.250;2022-08-21T06:04:13;98895.38;;;25.46;62.24
5455;BME280;2750;49.050;9.250;2022-08-21T06:09:16;98895.50;;;26.43;61.00
5455;BME280;2750;49.050;9.250;2022-08-21T06:14:17;98891.00;;;26.35;60.09
5455;BME280;2750;49.050;9.250;2022-08-21T06:19:19;98888.19;;;27.00;59.40
5455;BME280;2750;49.050;9.250;2022-08-21T06:24:22;98875.22;;;26.97;59.58
5455;BME280;2750;49.050;9.250;2022-08-21T06:29:24;98886.75;;;26.73;60.94
5455;BME280;2750;49.050;9.250;2022-08-21T06:34:25;98882.97;;;26.59;62.28
5455;BME280;2750;49.050;9.250;2022-08-21T06:39:28;98878.69;;;27.05;61.02
5455;BME280;2750;49.050;9.250;2022-08-21T06:44:30;98874.38;;;26.01;62.84
5455;BME280;2750;49.050;9.250;2022-08-21T06:49:32;98875.97;;;24.69;66.30
5455;BME280;2750;49.050;9.250;2022-08-21T06:54:35;98868.19;;;24.16;67.69
5455;BME280;2750;49.050;9.250;2022-08-21T06:59:36;98870.00;;;24.42;67.10
5455;BME280;2750;49.050;9.250;2022-08-21T07:04:38;98869.78;;;24.53;67.33
5455;BME280;2750;49.050;9.250;2022-08-21T07:09:41;98870.97;;;24.15;66.44
5455;BME280;2750;49.050;9.250;2022-08-21T07:14:42;98873.41;;;24.52;65.86
5455;BME280;2750;49.050;9.250;2022-08-21T07:19:44;98868.88;;;24.78;65.51
5455;BME280;2750;49.050;9.250;2022-08-21T07:24:47;98863.16;;;25.33;64.27
5455;BME280;2750;49.050;9.250;2022-08-21T07:29:49;98864.09;;;26.77;59.97
5455;BME280;2750;49.050;9.250;2022-08-21T07:34:50;98863.00;;;29.77;54.87
5455;BME280;2750;49.050;9.250;2022-08-21T07:39:53;98864.75;;;31.50;52.34
5455;BME280;2750;49.050;9.250;2022-08-21T07:44:55;98869.00;;;32.64;50.16
5455;BME280;2750;49.050;9.250;2022-08-21T07:49:56;98860.56;;;33.56;49.02
5455;BME280;2750;49.050;9.250;2022-08-21T07:54:59;98853.19;;;33.39;48.47
5455;BME280;2750;49.050;9.250;2022-08-21T08:00:03;98854.47;;;34.48;46.95
5455;BME280;2750;49.050;9.250;2022-08-21T08:05:07;98855.09;;;33.70;48.13
5455;BME280;2750;49.050;9.250;2022-08-21T08:10:11;98847.31;;;34.97;45.90
5455;BME280;2750;49.050;9.250;2022-08-21T08:15:15;98835.81;;;35.68;45.44
5455;BME280;2750;49.050;9.250;2022-08-21T08:20:18;98827.06;;;36.30;45.09
5455;BME280;2750;49.050;9.250;2022-08-21T08:25:23;98825.63;;;35.93;45.28
5455;BME280;2750;49.050;9.250;2022-08-21T08:30:25;98811.97;;;34.44;46.44
5455;BME280;2750;49.050;9.250;2022-08-21T08:35:27;98801.50;;;35.38;45.01
5455;BME280;2750;49.050;9.250;2022-08-21T08:40:36;98814.47;;;34.45;46.35
5455;BME280;2750;49.050;9.250;2022-08-21T08:45:42;98799.75;;;33.98;46.64
5455;BME280;2750;49.050;9.250;2022-08-21T08:50:48;98790.84;;;32.97;47.35
5455;BME280;2750;49.050;9.250;2022-08-21T08:55:52;98788.91;;;34.05;46.43
5455;BME280;2750;49.050;9.250;2022-08-21T09:00:55;98791.91;;;32.12;48.74
5455;BME280;2750;49.050;9.250;2022-08-21T09:06:03;98794.13;;;33.06;47.72
5455;BME280;2750;49.050;9.250;2022-08-21T09:11:13;98789.84;;;31.95;49.11
5455;BME280;2750;49.050;9.250;2022-08-21T09:16:25;98780.56;;;32.88;47.95
5455;BME280;2750;49.050;9.250;2022-08-21T09:21:36;98783.22;;;31.71;48.63
5455;BME280;2750;49.050;9.250;2022-08-21T09:26:47;98777.75;;;31.12;49.97
5455;BME280;2750;49.050;9.250;2022-08-21T09:31:50;98776.00;;;30.98;50.28
5455;BME280;2750;49.050;9.250;2022-08-21T09:36:52;98781.06;;;30.66;50.20
5455;BME280;2750;49.050;9.250;2022-08-21T09:42:02;98769.88;;;30.22;51.17
5455;BME280;2750;49.050;9.250;2022-08-21T09:47:05;98770.28;;;29.70;52.89
5455;BME280;2750;49.050;9.250;2022-08-21T09:52:17;98768.06;;;29.52;52.39
5455;BME280;2750;49.050;9.250;2022-08-21T09:57:24;98759.19;;;29.73;52.79
5455;BME280;2750;49.050;9.250;2022-08-21T10:02:46;98763.94;;;29.99;50.50
5455;BME280;2750;49.050;9.250;2022-08-21T10:07:49;98757.75;;;29.49;52.00
5455;BME280;2750;49.050;9.250;2022-08-21T10:12:56;98752.91;;;29.17;51.57
5455;BME280;2750;49.050;9.250;2022-08-21T10:18:06;98757.38;;;29.52;51.39
5455;BME280;2750;49.050;9.250;2022-08-21T10:23:29;98751.81;;;30.37;49.59
5455;BME280;2750;49.050;9.250;2022-08-21T10:28:39;98749.47;;;29.44;51.60
5455;BME280;2750;49.050;9.250;2022-08-21T10:33:47;98741.22;;;29.88;50.36
5455;BME280;2750;49.050;9.250;2022-08-21T10:38:58;98726.22;;;30.28;49.74
5455;BME280;2750;49.050;9.250;2022-08-21T10:44:11;98729.88;;;29.86;50.22
5455;BME280;2750;49.050;9.250;2022-08-21T10:49:22;98729.91;;;29.01;51.00
5455;BME280;2750;49.050;9.250;2022-08-21T10:54:32;98719.97;;;29.59;50.96
5455;BME280;2750;49.050;9.250;2022-08-21T10:59:42;98719.97;;;29.59;50.32
5455;BME280;2750;49.050;9.250;2022-08-21T11:04:52;98715.72;;;29.01;50.68
5455;BME280;2750;49.050;9.250;2022-08-21T11:09:59;98715.88;;;29.35;50.04
5455;BME280;2750;49.050;9.250;2022-08-21T11:15:10;98718.66;;;28.70;51.38
5455;BME280;2750;49.050;9.250;2022-08-21T11:20:15;98720.06;;;28.22;50.48
5455;BME280;2750;49.050;9.250;2022-08-21T11:25:29;98717.22;;;28.88;50.40
5455;BME280;2750;49.050;9.250;2022-08-21T11:30:42;98712.00;;;29.65;49.03
5455;BME280;2750;49.050;9.250;2022-08-21T11:35:49;98695.97;;;30.34;49.56
5455;BME280;2750;49.050;9.250;2022-08-21T11:41:09;98691.63;;;30.80;47.67
5455;BME280;2750;49.050;9.250;2022-08-21T11:46:23;98679.75;;;31.42;47.48
5455;BME280;2750;49.050;9.250;2022-08-21T11:51:32;98687.19;;;31.27;47.03
5455;BME280;2750;49.050;9.250;2022-08-21T11:56:38;98672.13;;;31.39;47.68
5455;BME280;2750;49.050;9.250;2022-08-21T12:01:45;98677.03;;;31.88;46.69
5455;BME280;2750;49.050;9.250;2022-08-21T12:06:47;98678.56;;;30.58;48.87
5455;BME280;2750;49.050;9.250;2022-08-21T12:11:59;98671.94;;;30.13;49.74
5455;BME280;2750;49.050;9.250;2022-08-21T12:17:06;98679.31;;;29.70;48.87
5455;BME280;2750;49.050;9.250;2022-08-21T12:22:09;98667.66;;;30.18;47.74
5455;BME280;2750;49.050;9.250;2022-08-21T12:27:21;98667.84;;;30.58;45.15
5455;BME280;2750;49.050;9.250;2022-08-21T12:32:28;98661.16;;;31.21;45.34
5455;BME280;2750;49.050;9.250;2022-08-21T12:37:38;98648.97;;;31.51;44.03
5455;BME280;2750;49.050;9.250;2022-08-21T12:42:43;98643.13;;;30.75;45.52
5455;BME280;2750;49.050;9.250;2022-08-21T12:47:51;98636.59;;;31.24;45.58
5455;BME280;2750;49.050;9.250;2022-08-21T12:52:59;98634.53;;;31.59;44.86
5455;BME280;2750;49.050;9.250;2022-08-21T12:58:04;98626.34;;;32.56;44.78
5455;BME280;2750;49.050;9.250;2022-08-21T13:03:08;98634.78;;;33.29;44.41
5455;BME280;2750;49.050;9.250;2022-08-21T13:08:11;98626.47;;;33.05;43.04
5455;BME280;2750;49.050;9.250;2022-08-21T13:13:17;98623.66;;;32.05;44.14
5455;BME280;2750;49.050;9.250;2022-08-21T13:18:27;98623.34;;;30.90;46.10
5455;BME280;2750;49.050;9.250;2022-08-21T13:23:30;98615.13;;;31.24;45.13
5455;BME280;2750;49.050;9.250;2022-08-21T13:28:33;98622.34;;;31.43;44.80
5455;BME280;2750;49.050;9.250;2022-08-21T13:33:39;98618.91;;;32.58;43.64
5455;BME280;2750;49.050;9.250;2022-08-21T13:38:44;98614.06;;;32.35;43.15
5455;BME280;2750;49.050;9.250;2022-08-21T13:43:49;98613.69;;;31.28;45.10
5455;BME280;2750;49.050;9.250;2022-08-21T13:48:53;98606.66;;;31.73;43.98
5455;BME280;2750;49.050;9.250;2022-08-21T13:53:55;98604.91;;;32.49;43.07
5455;BME280;2750;49.050;9.250;2022-08-21T13:58:58;98597.09;;;33.53;42.18
5455;BME280;2750;49.050;9.250;2022-08-21T14:04:06;98601.19;;;33.13;44.03
5455;BME280;2750;49.050;9.250;2022-08-21T14:09:12;98605.25;;;34.01;41.83
5455;BME280;2750;49.050;9.250;2022-08-21T14:14:18;98600.94;;;34.48;41.73
5455;BME280;2750;49.050;9.250;2022-08-21T14:19:24;98600.94;;;36.29;39.65
5455;BME280;2750;49.050;9.250;2022-08-21T14:24:29;98590.84;;;36.98;39.83
5455;BME280;2750;49.050;9.250;2022-08-21T14:29:34;98588.41;;;37.13;38.67
5455;BME280;2750;49.050;9.250;2022-08-21T14:34:37;98586.59;;;36.29;38.39
5455;BME280;2750;49.050;9.250;2022-08-21T14:39:39;98577.66;;;35.77;40.62
5455;BME280;2750;49.050;9.250;2022-08-21T14:44:40;98572.38;;;37.28;38.84
5455;BME280;2750;49.050;9.250;2022-08-21T14:49:43;98572.06;;;38.50;38.04
5455;BME280;2750;49.050;9.250;2022-08-21T14:54:45;98575.19;;;36.55;38.82
5455;BME280;2750;49.050;9.250;2022-08-21T14:59:46;98573.28;;;34.83;40.86
5455;BME280;2750;49.050;9.250;2022-08-21T15:04:49;98561.63;;;33.38;42.05
5455;BME280;2750;49.050;9.250;2022-08-21T15:09:51;98560.47;;;33.03;42.43
5455;BME280;2750;49.050;9.250;2022-08-21T15:14:52;98557.94;;;32.52;42.78
5455;BME280;2750;49.050;9.250;2022-08-21T15:19:55;98559.13;;;32.24;42.98
5455;BME280;2750;49.050;9.250;2022-08-21T15:24:57;98544.31;;;33.28;41.93
5455;BME280;2750;49.050;9.250;2022-08-21T15:29:58;98541.34;;;35.61;39.80
5455;BME280;2750;49.050;9.250;2022-08-21T15:35:02;98536.63;;;37.92;37.69
5455;BME280;2750;49.050;9.250;2022-08-21T15:40:05;98531.09;;;38.25;37.33
5455;BME280;2750;49.050;9.250;2022-08-21T15:45:09;98535.25;;;38.38;36.74
5455;BME280;2750;49.050;9.250;2022-08-21T15:50:13;98529.31;;;37.10;37.24
5455;BME280;2750;49.050;9.250;2022-08-21T15:55:15;98523.97;;;37.54;36.58
5455;BME280;2750;49.050;9.250;2022-08-21T16:00:18;98519.38;;;37.38;36.50
5455;BME280;2750;49.050;9.250;2022-08-21T16:05:23;98521.19;;;35.92;38.18
5455;BME280;2750;49.050;9.250;2022-08-21T16:10:25;98532.56;;;36.62;37.37
5455;BME280;2750;49.050;9.250;2022-08-21T16:15:27;98514.44;;;35.15;38.52
5455;BME280;2750;49.050;9.250;2022-08-21T16:20:30;98506.41;;;35.43;38.46
5455;BME280;2750;49.050;9.250;2022-08-21T16:25:34;98509.41;;;36.55;36.79
5455;BME280;2750;49.050;9.250;2022-08-21T16:30:36;98500.72;;;37.19;36.60
5455;BME280;2750;49.050;9.250;2022-08-21T16:35:39;98500.91;;;35.89;36.65
5455;BME280;2750;49.050;9.250;2022-08-21T16:40:40;98499.88;;;35.79;37.70
5455;BME280;2750;49.050;9.250;2022-08-21T16:45:43;98495.41;;;35.21;36.93
5455;BME280;2750;49.050;9.250;2022-08-21T16:50:46;98492.91;;;35.31;36.62
5455;BME280;2750;49.050;9.250;2022-08-21T16:55:49;98486.28;;;35.50;37.03
5455;BME280;2750;49.050;9.250;2022-08-21T17:00:51;98478.56;;;35.42;37.11
5455;BME280;2750;49.050;9.250;2022-08-21T17:05:54;98489.28;;;35.37;36.96
5455;BME280;2750;49.050;9.250;2022-08-21T17:10:59;98483.75;;;34.74;38.06
5455;BME280;2750;49.050;9.250;2022-08-21T17:16:02;98487.06;;;34.05;38.77
5455;BME280;2750;49.050;9.250;2022-08-21T17:21:05;98491.97;;;33.78;39.64
5455;BME280;2750;49.050;9.250;2022-08-21T17:26:07;98493.13;;;33.09;40.77
5455;BME280;2750;49.050;9.250;2022-08-21T17:31:10;98492.09;;;32.86;40.26
5455;BME280;2750;49.050;9.250;2022-08-21T17:36:13;98496.22;;;32.32;41.34
5455;BME280;2750;49.050;9.250;2022-08-21T17:41:15;98492.97;;;32.55;41.36
5455;BME280;2750;49.050;9.250;2022-08-21T17:46:21;98492.91;;;31.99;42.16
5455;BME280;2750;49.050;9.250;2022-08-21T17:51:25;98497.50;;;31.21;42.62
5455;BME280;2750;49.050;9.250;2022-08-21T17:56:30;98490.56;;;29.80;44.30
5455;BME280;2750;49.050;9.250;2022-08-21T18:01:37;98495.69;;;29.28;45.52
5455;BME280;2750;49.050;9.250;2022-08-21T18:06:41;98499.34;;;28.71;46.00
5455;BME280;2750;49.050;9.250;2022-08-21T18:11:43;98501.06;;;28.15;46.83
5455;BME280;2750;49.050;9.250;2022-08-21T18:16:44;98501.72;;;28.02;47.20
5455;BME280;2750;49.050;9.250;2022-08-21T18:21:47;98499.88;;;28.03;46.61
5455;BME280;2750;49.050;9.250;2022-08-21T18:26:49;98510.31;;;27.47;47.26
5455;BME280;2750;49.050;9.250;2022-08-21T18:31:51;98514.50;;;27.13;50.21
5455;BME280;2750;49.050;9.250;2022-08-21T18:36:54;98521.50;;;25.77;52.63
5455;BME280;2750;49.050;9.250;2022-08-21T18:41:57;98521.59;;;25.53;53.11
5455;BME280;2750;49.050;9.250;2022-08-21T18:47:02;98528.81;;;25.75;53.98
5455;BME280;2750;49.050;9.250;2022-08-21T18:52:05;98536.06;;;25.34;54.45
5455;BME280;2750;49.050;9.250;2022-08-21T18:57:07;98535.81;;;25.05;54.90
5455;BME280;2750;49.050;9.250;2022-08-21T19:02:09;98541.31;;;24.63;55.28
5455;BME280;2750;49.050;9.250;2022-08-21T19:07:12;98545.63;;;24.48;55.88
5455;BME280;2750;49.050;9.250;2022-08-21T19:12:23;98558.56;;;24.51;55.05
5455;BME280;2750;49.050;9.250;2022-08-21T19:17:26;98552.09;;;24.37;55.46
5455;BME280;2750;49.050;9.250;2022-08-21T19:22:29;98560.03;;;24.29;55.01
5455;BME280;2750;49.050;9.250;2022-08-21T19:27:32;98559.19;;;23.78;56.45
5455;BME280;2750;49.050;9.250;2022-08-21T19:32:34;98564.59;;;23.61;56.66
5455;BME280;2750;49.050;9.250;2022-08-21T19:37:40;98576.78;;;23.54;57.20
5455;BME280;2750;49.050;9.250;2022-08-21T19:42:42;98570.72;;;23.35;57.23
5455;BME280;2750;49.050;9.250;2022-08-21T19:47:46;98575.41;;;23.16;57.86
5455;BME280;2750;49.050;9.250;2022-08-21T19:52:49;98575.81;;;23.03;57.73
5455;BME280;2750;49.050;9.250;2022-08-21T19:57:51;98575.00;;;23.03;58.24
5455;BME280;2750;49.050;9.250;2022-08-21T20:02:53;98584.00;;;22.92;59.01
5455;BME280;2750;49.050;9.250;2022-08-21T20:07:56;98580.81;;;23.06;58.63
5455;BME280;2750;49.050;9.250;2022-08-21T20:12:58;98579.25;;;22.96;59.09
5455;BME280;2750;49.050;9.250;2022-08-21T20:18:00;98580.63;;;22.82;59.87
5455;BME280;2750;49.050;9.250;2022-08-21T20:23:03;98582.75;;;21.98;62.71
5455;BME280;2750;49.050;9.250;2022-08-21T20:28:04;98580.06;;;22.25;63.17
5455;BME280;2750;49.050;9.250;2022-08-21T20:33:06;98590.63;;;22.08;62.59
5455;BME280;2750;49.050;9.250;2022-08-21T20:38:09;98586.06;;;22.00;63.09
5455;BME280;2750;49.050;9.250;2022-08-21T20:43:11;98581.78;;;21.89;63.73
5455;BME280;2750;49.050;9.250;2022-08-21T20:48:15;98588.22;;;21.87;63.31
5455;BME280;2750;49.050;9.250;2022-08-21T20:53:23;98585.09;;;22.01;62.94
5455;BME280;2750;49.050;9.250;2022-08-21T20:58:31;98581.59;;;21.73;63.01
5455;BME280;2750;49.050;9.250;2022-08-21T21:03:38;98592.28;;;21.35;63.99
5455;BME280;2750;49.050;9.250;2022-08-21T21:08:46;98592.75;;;21.30;63.71
5455;BME280;2750;49.050;9.250;2022-08-21T21:13:52;98587.06;;;21.25;64.40
5455;BME280;2750;49.050;9.250;2022-08-21T21:18:59;98584.16;;;21.19;65.02
5455;BME280;2750;49.050;9.250;2022-08-21T21:24:06;98583.84;;;21.31;64.66
5455;BME280;2750;49.050;9.250;2022-08-21T21:29:13;98579.59;;;21.11;65.28
5455;BME280;2750;49.050;9.250;2022-08-21T21:34:18;98579.69;;;21.10;65.68
5455;BME280;2750;49.050;9.250;2022-08-21T21:39:26;98582.25;;;21.11;65.70
5455;BME280;2750;49.050;9.250;2022-08-21T21:44:45;98586.13;;;20.97;66.41
5455;BME280;2750;49.050;9.250;2022-08-21T21:50:00;98578.50;;;20.85;67.01
5455;BME280;2750;49.050;9.250;2022-08-21T21:55:23;98588.09;;;20.76;66.90
5455;BME280;2750;49.050;9.250;2022-08-21T22:00:31;98598.63;;;20.38;68.08
5455;BME280;2750;49.050;9.250;2022-08-21T22:05:44;98596.00;;;20.47;67.19
5455;BME280;2750;49.050;9.250;2022-08-21T22:10:54;98591.44;;;20.49;67.39
5455;BME280;2750;49.050;9.250;2022-08-21T22:15:57;98592.53;;;20.37;67.65
5455;BME280;2750;49.050;9.250;2022-08-21T22:21:01;98601.00;;;20.41;67.81
5455;BME280;2750;49.050;9.250;2022-08-21T22:26:08;98602.19;;;20.08;68.57
5455;BME280;2750;49.050;9.250;2022-08-21T22:31:15;98601.78;;;19.73;69.23
5455;BME280;2750;49.050;9.250;2022-08-21T22:36:21;98599.53;;;19.59;68.68
5455;BME280;2750;49.050;9.250;2022-08-21T22:41:26;98609.44;;;19.45;69.46
5455;BME280;2750;49.050;9.250;2022-08-21T22:46:33;98603.94;;;19.37;69.07
5455;BME280;2750;49.050;9.250;2022-08-21T22:51:39;98612.31;;;19.42;68.76
5455;BME280;2750;49.050;9.250;2022-08-21T22:56:44;98605.69;;;19.48;68.68
5455;BME280;2750;49.050;9.250;2022-08-21T23:01:53;98607.13;;;19.31;68.77
5455;BME280;2750;49.050;9.250;2022-08-21T23:06:58;98607.53;;;19.36;69.11
5455;BME280;2750;49.050;9.250;2022-08-21T23:12:04;98607.69;;;19.14;69.93
5455;BME280;2750;49.050;9.250;2022-08-21T23:17:12;98602.31;;;18.74;71.14
5455;BME280;2750;49.050;9.250;2022-08-21T23:22:28;98600.91;;;18.70;71.64
5455;BME280;2750;49.050;9.250;2022-08-21T23:27:46;98595.81;;;18.57;72.54
5455;BME280;2750;49.050;9.250;2022-08-21T23:33:06;98600.34;;;18.44;73.17
5455;BME280;2750;49.050;9.250;2022-08-21T23:38:21;98595.34;;;18.52;73.22
5455;BME280;2750;49.050;9.250;2022-08-21T23:43:38;98602.31;;;18.74;72.28
5455;BME280;2750;49.050;9.250;2022-08-21T23:48:50;98610.63;;;18.47;72.81
5455;BME280;2750;49.050;9.250;2022-08-21T23:54:01;98619.16;;;18.72;71.98
5455;BME280;2750;49.050;9.250;2022-08-21T23:59:16;98604.19;;;18.40;73.54
